sensor_id;sensor_type;location;lat;lon;timestamp;pressure;altitude;pressure_sealevel;temperature;humidity
30081;BME280;16902;50.816;12.828;2023-11-25T00:04:11;96118.56;;;-0.43;100.00
30081;BME280;16902;50.816;12.828;2023-11-25T00:09:14;96133.88;;;-0.43;100.00
30081;BME280;16902;50.816;12.828;2023-11-25T00:14:17;96148.50;;;-0.54;100.00
30081;BME280;16902;50.816;12.828;2023-11-25T00:19:19;96156.69;;;-0.50;100.00
30081;BME280;16902;50.816;12.828;2023-11-25T00:24:20;96169.91;;;-0.55;100.00
30081;BME280;16902;50.816;12.828;2023-11-25T00:29:23;96196.25;;;-0.54;100.00
30081;BME280;16902;50.816;12.828;2023-11-25T00:34:25;96211.56;;;-0.62;100.00
30081;BME280;16902;50.816;12.828;2023-11-25T00:39:27;96221.97;;;-0.56;100.00
30081;BME280;16902;50.816;12.828;2023-11-25T00:44:28;96231.47;;;-0.48;100.00
30081;BME280;16902;50.816;12.828;2023-11-25T00:49:30;96254.59;;;-0.49;100.00
30081;BME280;16902;50.816;12.828;2023-11-25T00:54:38;96276.75;;;-0.58;100.00
30081;BME280;16902;50.816;12.828;2023-11-25T00:59:39;96286.41;;;-0.52;100.00
30081;BME280;16902;50.816;12.828;2023-11-25T01:04:41;96296.81;;;-0.63;100.00
30081;BME280;16902;50.816;12.828;2023-11-25T01:09:44;96315.06;;;-0.58;100.00
30081;BME280;16902;50.816;12.828;2023-11-25T01:14:46;96321.88;;;-0.49;100.00
30081;BME280;16902;50.816;12.828;2023-11-25T01:19:47;96331.09;;;-0.56;100.00
30081;BME280;16902;50.816;12.828;2023-11-25T01:24:51;96347.44;;;-0.49;100.00
30081;BME280;16902;50.816;12.828;2023-11-25T01:29:53;96349.63;;;-0.54;100.00
30081;BME280;16902;50.816;12.828;2023-11-25T01:34:55;96366.13;;;-0.48;100.00
30081;BME280;16902;50.816;12.828;2023-11-25T01:39:57;96384.19;;;-0.50;100.00
30081;BME280;16902;50.816;12.828;2023-11-25T01:44:59;96393.50;;;-0.59;100.00
30081;BME280;16902;50.816;12.828;2023-11-25T01:50:01;96403.25;;;-0.62;100.00
30081;BME280;16902;50.816;12.828;2023-11-25T02:00:33;96436.84;;;-0.57;100.00
30081;BME280;16902;50.816;12.828;2023-11-25T02:05:36;96452.81;;;-0.55;100.00
30081;BME280;16902;50.816;12.828;2023-11-25T02:10:40;96450.66;;;-0.50;100.00
30081;BME280;16902;50.816;12.828;2023-11-25T02:15:42;96452.56;;;-0.52;100.00
30081;BME280;16902;50.816;12.828;2023-11-25T02:20:44;96458.84;;;-0.46;100.00
30081;BME280;16902;50.816;12.828;2023-11-25T02:25:47;96466.56;;;-0.56;100.00
30081;BME280;16902;50.816;12.828;2023-11-25T02:30:52;96482.13;;;-0.49;100.00
30081;BME280;16902;50.816;12.828;2023-11-25T02:35:54;96485.06;;;-0.44;100.00
30081;BME280;16902;50.816;12.828;2023-11-25T02:40:56;96488.06;;;-0.59;100.00
30081;BME280;16902;50.816;12.828;2023-11-25T02:45:58;96486.72;;;-0.53;100.00
30081;BME280;16902;50.816;12.828;2023-11-25T02:50:59;96497.03;;;-0.45;100.00
30081;BME280;16902;50.816;12.828;2023-11-25T02:56:01;96506.31;;;-0.44;100.00
30081;BME280;16902;50.816;12.828;2023-11-25T03:01:03;96514.09;;;-0.36;100.00
30081;BME280;16902;50.816;12.828;2023-11-25T03:06:10;96521.09;;;-0.38;100.00
30081;BME280;16902;50.816;12.828;2023-11-25T03:11:18;96527.28;;;-0.40;100.00
30081;BME280;16902;50.816;12.828;2023-11-25T03:16:20;96536.06;;;-0.43;100.00
30081;BME280;16902;50.816;12.828;2023-11-25T03:21:27;96541.28;;;-0.44;100.00
30081;BME280;16902;50.816;12.828;2023-11-25T03:26:31;96544.22;;;-0.39;100.00
30081;BME280;16902;50.816;12.828;2023-11-25T03:31:33;96541.69;;;-0.39;100.00
30081;BME280;16902;50.816;12.828;2023-11-25T03:36:35;96551.53;;;-0.44;100.00
30081;BME280;16902;50.816;12.828;2023-11-25T03:41:37;96548.81;;;-0.33;100.00
30081;BME280;16902;50.816;12.828;2023-11-25T03:46:40;96570.06;;;-0.33;100.00
30081;BME280;16902;50.816;12.828;2023-11-25T03:51:43;96566.03;;;-0.35;100.00
30081;BME280;16902;50.816;12.828;2023-11-25T03:56:45;96583.13;;;-0.36;100.00
30081;BME280;16902;50.816;12.828;2023-11-25T04:01:47;96589.84;;;-0.35;100.00
30081;BME280;16902;50.816;12.828;2023-11-25T04:06:49;96584.88;;;-0.36;100.00
30081;BME280;16902;50.816;12.828;2023-11-25T04:11:51;96586.78;;;-0.38;100.00
30081;BME280;16902;50.816;12.828;2023-11-25T04:16:53;96598.84;;;-0.31;100.00
30081;BME280;16902;50.816;12.828;2023-11-25T04:21:57;96591.47;;;-0.34;100.00
30081;BME280;16902;50.816;12.828;2023-11-25T04:27:01;96594.94;;;-0.35;100.00
30081;BME280;16902;50.816;12.828;2023-11-25T04:32:03;96601.56;;;-0.32;100.00
30081;BME280;16902;50.816;12.828;2023-11-25T04:37:06;96614.59;;;-0.35;100.00
30081;BME280;16902;50.816;12.828;2023-11-25T04:42:08;96618.53;;;-0.41;100.00
30081;BME280;16902;50.816;12.828;2023-11-25T04:47:10;96621.63;;;-0.37;100.00
30081;BME280;16902;50.816;12.828;2023-11-25T04:52:12;96618.69;;;-0.42;100.00
30081;BME280;16902;50.816;12.828;2023-11-25T04:57:15;96627.56;;;-0.46;100.00
30081;BME280;16902;50.816;12.828;2023-11-25T05:02:17;96628.38;;;-0.46;100.00
30081;BME280;16902;50.816;12.828;2023-11-25T05:07:19;96643.16;;;-0.49;100.00
30081;BME280;16902;50.816;12.828;2023-11-25T05:12:22;96652.19;;;-0.45;100.00
30081;BME280;16902;50.816;12.828;2023-11-25T05:17:25;96658.09;;;-0.45;100.00
30081;BME280;16902;50.816;12.828;2023-11-25T05:22:28;96654.88;;;-0.47;100.00
30081;BME280;16902;50.816;12.828;2023-11-25T05:27:31;96658.09;;;-0.45;100.00
30081;BME280;16902;50.816;12.828;2023-11-25T05:32:32;96666.56;;;-0.44;100.00
30081;BME280;16902;50.816;12.828;2023-11-25T05:37:35;96656.25;;;-0.53;100.00
30081;BME280;16902;50.816;12.828;2023-11-25T05:42:37;96663.22;;;-0.45;100.00
30081;BME280;16902;50.816;12.828;2023-11-25T05:47:43;96669.84;;;-0.62;100.00
30081;BME280;16902;50.816;12.828;2023-11-25T05:52:45;96666.75;;;-0.65;100.00
30081;BME280;16902;50.816;12.828;2023-11-25T05:57:48;96656.53;;;-0.75;100.00
30081;BME280;16902;50.816;12.828;2023-11-25T06:02:53;96656.94;;;-0.70;100.00
30081;BME280;16902;50.816;12.828;2023-11-25T06:07:55;96667.72;;;-0.76;100.00
30081;BME280;16902;50.816;12.828;2023-11-25T06:12:57;96674.56;;;-0.86;100.00
30081;BME280;16902;50.816;12.828;2023-11-25T06:17:59;96689.91;;;-0.86;100.00
30081;BME280;16902;50.816;12.828;2023-11-25T06:23:01;96698.38;;;-0.86;100.00
30081;BME280;16902;50.816;12.828;2023-11-25T06:28:03;96700.53;;;-0.91;100.00
30081;BME280;16902;50.816;12.828;2023-11-25T06:33:05;96697.97;;;-0.91;100.00
30081;BME280;16902;50.816;12.828;2023-11-25T06:38:07;96692.72;;;-0.99;100.00
30081;BME280;16902;50.816;12.828;2023-11-25T06:43:11;96724.47;;;-1.01;100.00
30081;BME280;16902;50.816;12.828;2023-11-25T06:48:18;96715.84;;;-1.10;100.00
30081;BME280;16902;50.816;12.828;2023-11-25T06:53:25;96725.38;;;-1.12;100.00
30081;BME280;16902;50.816;12.828;2023-11-25T06:58:26;96723.50;;;-1.10;100.00
30081;BME280;16902;50.816;12.828;2023-11-25T07:03:29;96728.63;;;-1.10;100.00
30081;BME280;16902;50.816;12.828;2023-11-25T07:08:32;96724.84;;;-1.06;100.00
30081;BME280;16902;50.816;12.828;2023-11-25T07:13:34;96740.81;;;-1.14;100.00
30081;BME280;16902;50.816;12.828;2023-11-25T07:18:36;96735.97;;;-1.17;100.00
30081;BME280;16902;50.816;12.828;2023-11-25T07:23:44;96740.41;;;-1.19;100.00
30081;BME280;16902;50.816;12.828;2023-11-25T07:28:45;96758.53;;;-1.22;100.00
30081;BME280;16902;50.816;12.828;2023-11-25T07:33:47;96759.50;;;-1.23;100.00
30081;BME280;16902;50.816;12.828;2023-11-25T07:38:52;96772.81;;;-1.19;100.00
30081;BME280;16902;50.816;12.828;2023-11-25T07:43:54;96771.72;;;-1.17;100.00
30081;BME280;16902;50.816;12.828;2023-11-25T07:48:56;96779.13;;;-1.14;100.00
30081;BME280;16902;50.816;12.828;2023-11-25T07:53:57;96773.78;;;-1.11;100.00
30081;BME280;16902;50.816;12.828;2023-11-25T07:59:00;96773.09;;;-1.13;100.00
30081;BME280;16902;50.816;12.828;2023-11-25T08:04:04;96775.38;;;-1.19;100.00
30081;BME280;16902;50.816;12.828;2023-11-25T08:09:06;96780.47;;;-1.19;100.00
30081;BME280;16902;50.816;12.828;2023-11-25T08:14:09;96776.84;;;-1.17;100.00
30081;BME280;16902;50.816;12.828;2023-11-25T08:19:11;96764.09;;;-1.07;100.00
30081;BME280;16902;50.816;12.828;2023-11-25T08:24:15;96764.53;;;-0.83;100.00
30081;BME280;16902;50.816;12.828;2023-11-25T08:29:19;96756.47;;;-0.78;100.00
30081;BME280;16902;50.816;12.828;2023-11-25T08:34:22;96766.81;;;-0.70;100.00
30081;BME280;16902;50.816;12.828;2023-11-25T08:39:23;96763.72;;;-0.54;100.00
30081;BME280;16902;50.816;12.828;2023-11-25T08:44:29;96754.19;;;-0.52;100.00
30081;BME280;16902;50.816;12.828;2023-11-25T08:49:31;96742.34;;;-0.43;100.00
30081;BME280;16902;50.816;12.828;2023-11-25T08:54:34;96739.09;;;-0.36;100.00
30081;BME280;16902;50.816;12.828;2023-11-25T08:59:38;96724.72;;;-0.56;100.00
30081;BME280;16902;50.816;12.828;2023-11-25T09:04:40;96720.66;;;-0.49;100.00
30081;BME280;16902;50.816;12.828;2023-11-25T09:09:44;96708.44;;;-0.45;100.00
30081;BME280;16902;50.816;12.828;2023-11-25T09:14:51;96700.34;;;-0.41;100.00
30081;BME280;16902;50.816;12.828;2023-11-25T09:19:53;96694.66;;;-0.25;100.00
30081;BME280;16902;50.816;12.828;2023-11-25T09:24:55;96699.63;;;-0.14;100.00
30081;BME280;16902;50.816;12.828;2023-11-25T09:29:57;96705.22;;;-0.01;100.00
30081;BME280;16902;50.816;12.828;2023-11-25T09:35:00;96696.97;;;0.15;100.00
30081;BME280;16902;50.816;12.828;2023-11-25T09:40:02;96699.25;;;0.46;100.00
30081;BME280;16902;50.816;12.828;2023-11-25T09:45:08;96694.06;;;0.28;100.00
30081;BME280;16902;50.816;12.828;2023-11-25T09:50:11;96678.72;;;0.56;100.00
30081;BME280;16902;50.816;12.828;2023-11-25T09:55:15;96687.13;;;0.66;100.00
30081;BME280;16902;50.816;12.828;2023-11-25T10:00:20;96674.84;;;0.69;100.00
30081;BME280;16902;50.816;12.828;2023-11-25T10:05:23;96664.66;;;0.60;100.00
30081;BME280;16902;50.816;12.828;2023-11-25T10:10:25;96660.44;;;0.68;100.00
30081;BME280;16902;50.816;12.828;2023-11-25T10:15:30;96653.50;;;0.79;100.00
30081;BME280;16902;50.816;12.828;2023-11-25T10:20:41;96653.84;;;0.66;100.00
30081;BME280;16902;50.816;12.828;2023-11-25T10:25:44;96645.50;;;0.64;100.00
30081;BME280;16902;50.816;12.828;2023-11-25T10:30:53;96633.78;;;0.61;100.00
30081;BME280;16902;50.816;12.828;2023-11-25T10:35:56;96627.66;;;0.54;100.00
30081;BME280;16902;50.816;12.828;2023-11-25T10:46:05;96622.31;;;0.65;100.00
30081;BME280;16902;50.816;12.828;2023-11-25T10:51:08;96622.00;;;0.50;100.00
30081;BME280;16902;50.816;12.828;2023-11-25T10:56:13;96602.72;;;0.29;100.00
30081;BME280;16902;50.816;12.828;2023-11-25T11:01:16;96600.69;;;0.05;100.00
30081;BME280;16902;50.816;12.828;2023-11-25T11:06:28;96594.28;;;0.01;100.00
30081;BME280;16902;50.816;12.828;2023-11-25T11:21:43;96561.66;;;0.03;100.00
30081;BME280;16902;50.816;12.828;2023-11-25T11:32:41;96545.38;;;0.04;100.00
30081;BME280;16902;50.816;12.828;2023-11-25T11:37:48;96546.84;;;0.06;100.00
30081;BME280;16902;50.816;12.828;2023-11-25T11:42:54;96549.41;;;0.06;100.00
30081;BME280;16902;50.816;12.828;2023-11-25T11:47:57;96540.56;;;0.01;100.00
30081;BME280;16902;50.816;12.828;2023-11-25T11:58:10;96531.19;;;-0.09;100.00
30081;BME280;16902;50.816;12.828;2023-11-25T12:03:16;96519.78;;;0.04;100.00
30081;BME280;16902;50.816;12.828;2023-11-25T12:08:23;96525.50;;;0.15;100.00
30081;BME280;16902;50.816;12.828;2023-11-25T12:13:30;96526.59;;;0.13;100.00
30081;BME280;16902;50.816;12.828;2023-11-25T12:18:33;96521.53;;;0.03;100.00
30081;BME280;16902;50.816;12.828;2023-11-25T12:23:36;96509.97;;;-0.01;100.00
30081;BME280;16902;50.816;12.828;2023-11-25T12:28:51;96505.38;;;0.03;100.00
30081;BME280;16902;50.816;12.828;2023-11-25T12:33:54;96498.00;;;-0.01;100.00
30081;BME280;16902;50.816;12.828;2023-11-25T12:38:59;96505.22;;;0.04;100.00
30081;BME280;16902;50.816;12.828;2023-11-25T12:49:21;96506.28;;;0.11;100.00
30081;BME280;16902;50.816;12.828;2023-11-25T12:54:24;96497.72;;;0.03;100.00
30081;BME280;16902;50.816;12.828;2023-11-25T12:59:27;96506.34;;;0.02;100.00
30081;BME280;16902;50.816;12.828;2023-11-25T13:04:31;96499.09;;;-0.03;100.00
30081;BME280;16902;50.816;12.828;2023-11-25T13:09:33;96502.59;;;-0.04;100.00
30081;BME280;16902;50.816;12.828;2023-11-25T13:14:39;96493.97;;;-0.03;100.00
30081;BME280;16902;50.816;12.828;2023-11-25T13:19:41;96502.59;;;-0.04;100.00
30081;BME280;16902;50.816;12.828;2023-11-25T13:24:44;96506.72;;;0.07;100.00
30081;BME280;16902;50.816;12.828;2023-11-25T13:29:47;96498.00;;;0.17;100.00
30081;BME280;16902;50.816;12.828;2023-11-25T13:34:49;96494.13;;;0.31;100.00
30081;BME280;16902;50.816;12.828;2023-11-25T13:39:50;96493.41;;;0.39;100.00
30081;BME280;16902;50.816;12.828;2023-11-25T13:44:52;96512.97;;;0.48;100.00
30081;BME280;16902;50.816;12.828;2023-11-25T13:49:54;96506.94;;;0.49;100.00
30081;BME280;16902;50.816;12.828;2023-11-25T13:54:56;96506.50;;;0.54;100.00
30081;BME280;16902;50.816;12.828;2023-11-25T13:59:58;96502.81;;;0.56;100.00
30081;BME280;16902;50.816;12.828;2023-11-25T14:05:00;96498.38;;;0.58;100.00
30081;BME280;16902;50.816;12.828;2023-11-25T14:10:04;96497.69;;;0.56;100.00
30081;BME280;16902;50.816;12.828;2023-11-25T14:15:07;96501.81;;;0.49;100.00
30081;BME280;16902;50.816;12.828;2023-11-25T14:20:09;96502.53;;;0.41;100.00
30081;BME280;16902;50.816;12.828;2023-11-25T14:25:18;96493.41;;;0.39;100.00
30081;BME280;16902;50.816;12.828;2023-11-25T14:30:21;96493.63;;;0.45;100.00
30081;BME280;16902;50.816;12.828;2023-11-25T14:35:24;96497.63;;;0.48;100.00
30081;BME280;16902;50.816;12.828;2023-11-25T14:40:27;96505.81;;;0.51;100.00
30081;BME280;16902;50.816;12.828;2023-11-25T14:45:31;96502.63;;;0.49;100.00
30081;BME280;16902;50.816;12.828;2023-11-25T14:50:33;96493.63;;;0.45;100.00
30081;BME280;16902;50.816;12.828;2023-11-25T14:55:40;96488.66;;;0.44;100.00
30081;BME280;16902;50.816;12.828;2023-11-25T15:00:43;96488.50;;;0.45;100.00
30081;BME280;16902;50.816;12.828;2023-11-25T15:05:46;96484.47;;;0.43;100.00
30081;BME280;16902;50.816;12.828;2023-11-25T15:10:50;96481.09;;;0.42;100.00
30081;BME280;16902;50.816;12.828;2023-11-25T15:15:52;96481.78;;;0.44;100.00
30081;BME280;16902;50.816;12.828;2023-11-25T15:20:54;96484.63;;;0.41;100.00
30081;BME280;16902;50.816;12.828;2023-11-25T15:25:58;96487.19;;;0.41;100.00
30081;BME280;16902;50.816;12.828;2023-11-25T15:31:00;96489.75;;;0.41;100.00
30081;BME280;16902;50.816;12.828;2023-11-25T15:36:02;96491.84;;;0.46;100.00
30081;BME280;16902;50.816;12.828;2023-11-25T15:41:09;96489.28;;;0.46;100.00
30081;BME280;16902;50.816;12.828;2023-11-25T15:46:14;96483.19;;;0.39;100.00
30081;BME280;16902;50.816;12.828;2023-11-25T15:51:16;96490.19;;;0.37;100.00
30081;BME280;16902;50.816;12.828;2023-11-25T15:56:18;96508.03;;;0.11;100.00
30081;BME280;16902;50.816;12.828;2023-11-25T16:01:20;96519.19;;;-0.08;100.00
30081;BME280;16902;50.816;12.828;2023-11-25T16:06:23;96522.97;;;-0.12;100.00
30081;BME280;16902;50.816;12.828;2023-11-25T16:11:26;96523.88;;;-0.04;100.00
30081;BME280;16902;50.816;12.828;2023-11-25T16:16:30;96531.25;;;-0.01;100.00
30081;BME280;16902;50.816;12.828;2023-11-25T16:21:33;96533.31;;;-0.04;100.00
30081;BME280;16902;50.816;12.828;2023-11-25T16:26:38;96536.50;;;-0.02;100.00
30081;BME280;16902;50.816;12.828;2023-11-25T16:31:40;96544.13;;;0.08;100.00
30081;BME280;16902;50.816;12.828;2023-11-25T16:36:42;96549.63;;;0.13;100.00
30081;BME280;16902;50.816;12.828;2023-11-25T16:41:44;96552.91;;;0.05;100.00
30081;BME280;16902;50.816;12.828;2023-11-25T16:46:51;96553.09;;;-0.06;100.00
30081;BME280;16902;50.816;12.828;2023-11-25T16:51:53;96561.44;;;-0.04;100.00
30081;BME280;16902;50.816;12.828;2023-11-25T16:56:58;96567.22;;;-0.02;100.00
30081;BME280;16902;50.816;12.828;2023-11-25T17:02:02;96578.88;;;0.10;100.00
30081;BME280;16902;50.816;12.828;2023-11-25T17:07:04;96585.97;;;0.16;100.00
30081;BME280;16902;50.816;12.828;2023-11-25T17:12:10;96593.88;;;0.23;100.00
30081;BME280;16902;50.816;12.828;2023-11-25T17:17:12;96592.47;;;0.29;100.00
30081;BME280;16902;50.816;12.828;2023-11-25T17:22:15;96586.56;;;0.28;100.00
30081;BME280;16902;50.816;12.828;2023-11-25T17:27:17;96602.59;;;0.30;100.00
30081;BME280;16902;50.816;12.828;2023-11-25T17:32:18;96606.59;;;0.33;100.00
30081;BME280;16902;50.816;12.828;2023-11-25T17:37:21;96610.34;;;0.38;100.00
30081;BME280;16902;50.816;12.828;2023-11-25T17:42:23;96613.44;;;0.42;100.00
30081;BME280;16902;50.816;12.828;2023-11-25T17:47:25;96625.78;;;0.46;100.00
30081;BME280;16902;50.816;12.828;2023-11-25T17:52:27;96634.00;;;0.50;100.00
30081;BME280;16902;50.816;12.828;2023-11-25T17:57:29;96644.56;;;0.37;100.00
30081;BME280;16902;50.816;12.828;2023-11-25T18:02:32;96663.50;;;0.27;100.00
30081;BME280;16902;50.816;12.828;2023-11-25T18:07:36;96667.44;;;0.21;100.00
30081;BME280;16902;50.816;12.828;2023-11-25T18:12:45;96679.75;;;0.08;100.00
30081;BME280;16902;50.816;12.828;2023-11-25T18:17:47;96679.31;;;0.12;100.00
30081;BME280;16902;50.816;12.828;2023-11-25T18:22:49;96678.66;;;0.10;100.00
30081;BME280;16902;50.816;12.828;2023-11-25T18:27:52;96696.28;;;0.13;100.00
30081;BME280;16902;50.816;12.828;2023-11-25T18:32:54;96700.44;;;0.14;100.00
30081;BME280;16902;50.816;12.828;2023-11-25T18:37:56;96719.84;;;0.17;100.00
30081;BME280;16902;50.816;12.828;2023-11-25T18:42:59;96718.41;;;0.05;100.00
30081;BME280;16902;50.816;12.828;2023-11-25T18:48:01;96721.22;;;0.11;100.00
30081;BME280;16902;50.816;12.828;2023-11-25T18:53:03;96728.13;;;0.01;100.00
30081;BME280;16902;50.816;12.828;2023-11-25T18:58:05;96733.38;;;-0.10;100.00
30081;BME280;16902;50.816;12.828;2023-11-25T19:03:07;96739.09;;;-0.26;100.00
30081;BME280;16902;50.816;12.828;2023-11-25T19:08:11;96751.06;;;-0.27;100.00
30081;BME280;16902;50.816;12.828;2023-11-25T19:13:14;96762.63;;;-0.22;100.00
30081;BME280;16902;50.816;12.828;2023-11-25T19:18:16;96768.94;;;-0.17;100.00
30081;BME280;16902;50.816;12.828;2023-11-25T19:23:18;96765.59;;;-0.17;100.00
30081;BME280;16902;50.816;12.828;2023-11-25T19:28:20;96776.88;;;-0.20;100.00
30081;BME280;16902;50.816;12.828;2023-11-25T19:33:25;96784.84;;;-0.23;100.00
30081;BME280;16902;50.816;12.828;2023-11-25T19:38:27;96787.81;;;-0.18;100.00
30081;BME280;16902;50.816;12.828;2023-11-25T19:43:30;96796.03;;;-0.14;100.00
30081;BME280;16902;50.816;12.828;2023-11-25T19:48:31;96802.22;;;-0.17;100.00
30081;BME280;16902;50.816;12.828;2023-11-25T19:53:35;96805.72;;;-0.28;100.00
30081;BME280;16902;50.816;12.828;2023-11-25T19:58:52;96808.69;;;-0.32;100.00
30081;BME280;16902;50.816;12.828;2023-11-25T20:03:54;96822.94;;;-0.30;100.00
30081;BME280;16902;50.816;12.828;2023-11-25T20:08:56;96821.88;;;-0.17;100.00
30081;BME280;16902;50.816;12.828;2023-11-25T20:13:58;96812.69;;;-0.10;100.00
30081;BME280;16902;50.816;12.828;2023-11-25T20:19:01;96820.66;;;-0.04;100.00
30081;BME280;16902;50.816;12.828;2023-11-25T20:24:04;96836.00;;;-0.04;100.00
30081;BME280;16902;50.816;12.828;2023-11-25T20:29:06;96836.94;;;-0.14;100.00
30081;BME280;16902;50.816;12.828;2023-11-25T20:34:09;96838.28;;;-0.10;100.00
30081;BME280;16902;50.816;12.828;2023-11-25T20:39:11;96857.69;;;-0.17;100.00
30081;BME280;16902;50.816;12.828;2023-11-25T20:44:14;96850.56;;;-0.23;100.00
30081;BME280;16902;50.816;12.828;2023-11-25T20:49:19;96863.34;;;-0.33;100.00
30081;BME280;16902;50.816;12.828;2023-11-25T20:54:21;96859.28;;;-0.45;100.00
30081;BME280;16902;50.816;12.828;2023-11-25T20:59:23;96865.47;;;-0.38;100.00
30081;BME280;16902;50.816;12.828;2023-11-25T21:04:25;96879.59;;;-0.24;100.00
30081;BME280;16902;50.816;12.828;2023-11-25T21:09:26;96917.03;;;-0.33;100.00
30081;BME280;16902;50.816;12.828;2023-11-25T21:14:28;96912.00;;;-0.54;100.00
30081;BME280;16902;50.816;12.828;2023-11-25T21:19:31;96929.59;;;-0.70;100.00
30081;BME280;16902;50.816;12.828;2023-11-25T21:24:33;96919.63;;;-0.64;100.00
30081;BME280;16902;50.816;12.828;2023-11-25T21:29:36;96932.16;;;-0.70;100.00
30081;BME280;16902;50.816;12.828;2023-11-25T21:34:38;96932.94;;;-0.70;100.00
30081;BME280;16902;50.816;12.828;2023-11-25T21:39:40;96944.28;;;-0.63;100.00
30081;BME280;16902;50.816;12.828;2023-11-25T21:44:44;96925.06;;;-0.57;100.00
30081;BME280;16902;50.816;12.828;2023-11-25T21:49:46;96935.81;;;-0.54;100.00
30081;BME280;16902;50.816;12.828;2023-11-25T21:54:48;96948.31;;;-0.60;100.00
30081;BME280;16902;50.816;12.828;2023-11-25T21:59:50;96955.44;;;-0.64;100.00
30081;BME280;16902;50.816;12.828;2023-11-25T22:04:53;96957.75;;;-0.51;100.00
30081;BME280;16902;50.816;12.828;2023-11-25T22:09:55;96957.72;;;-0.61;100.00
30081;BME280;16902;50.816;12.828;2023-11-25T22:14:57;96957.34;;;-0.56;100.00
30081;BME280;16902;50.816;12.828;2023-11-25T22:19:59;96957.72;;;-0.61;100.00
30081;BME280;16902;50.816;12.828;2023-11-25T22:25:01;96962.31;;;-0.55;100.00
30081;BME280;16902;50.816;12.828;2023-11-25T22:30:05;96975.25;;;-0.56;100.00
30081;BME280;16902;50.816;12.828;2023-11-25T22:35:08;96988.31;;;-0.49;100.00
30081;BME280;16902;50.816;12.828;2023-11-25T22:40:11;96995.59;;;-0.45;100.00
30081;BME280;16902;50.816;12.828;2023-11-25T22:45:13;97000.88;;;-0.37;100.00
30081;BME280;16902;50.816;12.828;2023-11-25T22:50:15;96994.78;;;-0.45;100.00
30081;BME280;16902;50.816;12.828;2023-11-25T22:55:17;97011.50;;;-0.41;100.00
30081;BME280;16902;50.816;12.828;2023-11-25T23:00:19;97002.19;;;-0.42;100.00
30081;BME280;16902;50.816;12.828;2023-11-25T23:05:45;97006.75;;;-0.46;100.00
30081;BME280;16902;50.816;12.828;2023-11-25T23:10:51;97005.25;;;-0.48;100.00
30081;BME280;16902;50.816;12.828;2023-11-25T23:15:57;97005.41;;;-0.50;100.00
30081;BME280;16902;50.816;12.828;2023-11-25T23:21:00;97013.63;;;-0.46;100.00
30081;BME280;16902;50.816;12.828;2023-11-25T23:26:03;97027.50;;;-0.39;100.00
30081;BME280;16902;50.816;12.828;2023-11-25T23:31:06;97029.53;;;-0.43;100.00
30081;BME280;16902;50.816;12.828;2023-11-25T23:36:09;97034.47;;;-0.51;100.00
30081;BME280;16902;50.816;12.828;2023-11-25T23:41:11;97036.16;;;-0.61;100.00
30081;BME280;16902;50.816;12.828;2023-11-25T23:46:13;97043.19;;;-0.84;100.00
30081;BME280;16902;50.816;12.828;2023-11-25T23:51:15;97052.16;;;-0.90;100.00
30081;BME280;16902;50.816;12.828;2023-11-25T23:56:17;97052.16;;;-0.90;100.00
